createdAt,value
2018-06-05T00:00:46.177Z,97334.00
2018-06-05T00:03:26.834Z,97338.00
2018-06-05T00:06:06.257Z,97339.00
2018-06-05T00:08:44.994Z,97341.00
2018-06-05T00:11:25.096Z,97339.00
2018-06-05T00:14:04.631Z,97335.00
2018-06-05T00:16:43.270Z,97339.00
2018-06-05T00:19:21.714Z,97336.00
2018-06-05T00:22:00.332Z,97332.00
2018-06-05T00:24:38.674Z,97335.00
2018-06-05T00:27:17.636Z,97335.00
2018-06-05T00:29:57.640Z,97342.00
2018-06-05T00:32:38.792Z,97338.00
2018-06-05T00:35:16.353Z,97340.00
2018-06-05T00:37:55.753Z,97343.00
2018-06-05T00:40:35.335Z,97342.00
2018-06-05T00:43:14.994Z,97342.00
2018-06-05T00:45:57.174Z,97341.00
2018-06-05T00:48:36.515Z,97342.00
2018-06-05T00:51:26.891Z,97338.00
2018-06-05T00:54:06.040Z,97341.00
2018-06-05T00:56:44.375Z,97339.00
2018-06-05T00:59:20.469Z,97337.00
2018-06-05T01:01:59.050Z,97337.00
2018-06-05T01:04:38.012Z,97342.00
2018-06-05T01:07:16.716Z,97345.00
2018-06-05T01:09:55.563Z,97341.00
2018-06-05T01:12:32.994Z,97340.00
2018-06-05T01:15:12.992Z,97342.00
2018-06-05T01:17:51.711Z,97344.00
2018-06-05T01:20:30.874Z,97346.00
2018-06-05T01:23:09.797Z,97347.00
2018-06-05T01:25:48.490Z,97341.00
2018-06-05T01:28:27.634Z,97344.00
2018-06-05T01:31:07.134Z,97346.00
2018-06-05T01:33:48.010Z,97352.00
2018-06-05T01:36:27.409Z,97353.00
2018-06-05T01:39:05.797Z,97358.00
2018-06-05T01:41:44.914Z,97360.00
2018-06-05T01:44:23.152Z,97362.00
2018-06-05T01:47:01.775Z,97363.00
2018-06-05T01:49:45.450Z,97362.00
2018-06-05T01:52:23.855Z,97365.00
2018-06-05T01:55:02.039Z,97367.00
2018-06-05T01:57:42.248Z,97370.00
2018-06-05T02:00:20.493Z,97377.00
2018-06-05T02:03:00.160Z,97374.00
2018-06-05T02:05:38.396Z,97378.00
2018-06-05T02:08:16.692Z,97384.00
2018-06-05T02:10:57.393Z,97384.00
2018-06-05T02:13:35.798Z,97392.00
2018-06-05T02:16:15.469Z,97393.00
2018-06-05T02:18:54.316Z,97390.00
2018-06-05T02:21:32.673Z,97388.00
2018-06-05T02:24:11.193Z,97386.00
2018-06-05T02:26:49.831Z,97390.00
2018-06-05T02:29:29.372Z,97386.00
2018-06-05T02:32:08.052Z,97388.00
2018-06-05T02:34:46.714Z,97386.00
2018-06-05T02:37:26.031Z,97391.00
2018-06-05T02:40:03.892Z,97389.00
2018-06-05T02:42:42.511Z,97384.00
2018-06-05T02:45:21.291Z,97388.00
2018-06-05T02:47:59.572Z,97389.00
2018-06-05T02:50:39.135Z,97389.00
2018-06-05T02:53:17.972Z,97393.00
2018-06-05T02:55:56.258Z,97393.00
2018-06-05T02:58:35.155Z,97395.00
2018-06-05T03:01:14.296Z,97397.00
2018-06-05T03:03:52.437Z,97397.00
2018-06-05T04:29:55.236Z,97435.00
2018-06-05T04:32:34.418Z,97435.00
2018-06-05T04:35:16.556Z,97439.00
2018-06-05T04:37:55.993Z,97443.00
2018-06-05T04:40:37.353Z,97437.00
2018-06-05T04:43:14.372Z,97439.00
2018-06-05T04:45:53.457Z,97445.00
2018-06-05T04:48:31.014Z,97443.00
2018-06-05T04:51:14.253Z,97444.00
2018-06-05T04:53:58.054Z,97439.00
2018-06-05T04:56:37.776Z,97445.00
2018-06-05T04:59:18.030Z,97443.00
2018-06-05T05:02:00.276Z,97447.00
2018-06-05T05:04:37.913Z,97449.00
2018-06-05T05:07:18.291Z,97453.00
2018-06-05T05:09:59.196Z,97455.00
2018-06-05T05:12:37.973Z,97458.00
2018-06-05T05:15:17.196Z,97459.00
2018-06-05T05:18:00.759Z,97458.00
2018-06-05T05:20:43.275Z,97454.00
2018-06-05T05:23:25.550Z,97461.00
2018-06-05T05:26:05.113Z,97463.00
2018-06-05T05:28:54.737Z,97467.00
2018-06-05T05:31:35.256Z,97466.00
2018-06-05T05:34:12.831Z,97467.00
2018-06-05T05:36:55.233Z,97461.00
2018-06-05T05:39:37.114Z,97468.00
2018-06-05T05:42:18.816Z,97472.00
2018-06-05T05:44:59.915Z,97470.00
2018-06-05T05:47:43.212Z,97471.00
2018-06-05T05:50:23.769Z,97464.00
2018-06-05T05:53:06.416Z,97461.00
2018-06-05T05:55:45.013Z,97460.00
2018-06-05T05:58:26.154Z,97465.00
2018-06-05T06:01:06.313Z,97464.00
2018-06-05T06:03:43.818Z,97466.00
2018-06-05T06:06:25.091Z,97456.00
2018-06-05T06:09:04.017Z,97462.00
2018-06-05T06:11:48.071Z,97464.00
2018-06-05T06:14:33.123Z,97460.00
2018-06-05T06:17:22.472Z,97462.00
2018-06-05T06:20:05.655Z,97467.00
2018-06-05T06:22:43.990Z,97467.00
2018-06-05T06:25:27.895Z,97467.00
2018-06-05T06:28:07.359Z,97464.00
2018-06-05T06:30:50.456Z,97464.00
2018-06-05T06:33:30.552Z,97464.00
2018-06-05T06:36:11.895Z,97458.00
2018-06-05T06:38:57.178Z,97456.00
2018-06-05T06:41:55.032Z,97459.00
2018-06-05T06:44:32.415Z,97459.00
2018-06-05T06:47:18.309Z,97457.00
2018-06-05T06:50:06.161Z,97460.00
2018-06-05T06:52:48.335Z,97460.00
2018-06-05T06:55:30.156Z,97462.00
2018-06-05T06:58:15.160Z,97456.00
2018-06-05T07:00:55.809Z,97453.00
2018-06-05T07:03:34.269Z,97453.00
2018-06-05T07:06:23.860Z,97450.00
2018-06-05T07:09:01.570Z,97449.00
2018-06-05T07:11:39.394Z,97450.00
2018-06-05T07:14:19.012Z,97445.00
2018-06-05T07:17:00.339Z,97442.00
2018-06-05T07:19:47.940Z,97443.00
2018-06-05T07:22:30.214Z,97439.00
2018-06-05T07:25:13.196Z,97438.00
2018-06-05T07:27:55.268Z,97440.00
2018-06-05T07:30:36.397Z,97435.00
2018-06-05T07:33:28.071Z,97427.00
2018-06-05T07:36:08.537Z,97433.00
2018-06-05T07:38:51.756Z,97434.00
2018-06-05T07:41:40.074Z,97425.00
2018-06-05T07:44:19.259Z,97419.00
2018-06-05T07:46:59.139Z,97417.00
2018-06-05T07:49:37.537Z,97417.00
2018-06-05T07:52:16.615Z,97413.00
2018-06-05T07:54:55.431Z,97411.00
2018-06-05T07:57:35.197Z,97404.00
2018-06-05T08:00:14.778Z,97406.00
2018-06-05T08:02:55.080Z,97405.00
2018-06-05T08:05:37.117Z,97413.00
2018-06-05T08:08:19.177Z,97401.00
2018-06-05T08:11:01.196Z,97406.00
2018-06-05T08:13:40.239Z,97404.00
2018-06-05T08:16:19.552Z,97404.00
2018-06-05T08:18:58.313Z,97403.00
2018-06-05T08:21:36.494Z,97406.00
2018-06-05T08:24:18.055Z,97405.00
2018-06-05T08:27:02.440Z,97408.00
2018-06-05T08:29:43.935Z,97401.00
2018-06-05T08:32:29.294Z,97404.00
2018-06-05T08:35:11.554Z,97405.00
2018-06-05T08:37:52.383Z,97400.00
2018-06-05T08:40:30.590Z,97397.00
2018-06-05T08:43:13.112Z,97398.00
2018-06-05T08:45:52.238Z,97390.00
2018-06-05T08:48:31.474Z,97393.00
2018-06-05T08:51:13.437Z,97388.00
2018-06-05T08:53:55.898Z,97385.00
2018-06-05T08:56:48.734Z,97387.00
2018-06-05T08:59:27.893Z,97386.00
2018-06-05T09:02:08.434Z,97385.00
2018-06-05T09:04:52.599Z,97384.00
2018-06-05T09:07:32.534Z,97377.00
2018-06-05T09:10:12.673Z,97375.00
2018-06-05T09:42:41.396Z,97376.00
2018-06-05T09:45:27.337Z,97379.00
2018-06-05T09:48:06.951Z,97371.00
2018-06-05T09:50:50.556Z,97376.00
2018-06-05T09:53:31.009Z,97371.00
2018-06-05T10:49:37.072Z,97346.00
2018-06-05T10:52:15.936Z,97350.00
2018-06-05T10:55:00.033Z,97346.00
2018-06-05T10:57:37.513Z,97346.00
2018-06-05T11:00:15.053Z,97342.00
2018-06-05T11:02:54.039Z,97342.00
2018-06-05T11:05:34.675Z,97338.00
2018-06-05T11:08:14.195Z,97331.00
2018-06-05T11:10:54.313Z,97325.00
2018-06-05T11:13:38.874Z,97324.00
2018-06-05T11:16:23.212Z,97328.00
2018-06-05T11:19:04.451Z,97325.00
2018-06-05T11:21:44.108Z,97330.00
2018-06-05T11:24:25.917Z,97317.00
2018-06-05T11:27:09.136Z,97319.00
2018-06-05T11:29:49.932Z,97321.00
2018-06-05T11:32:29.709Z,97322.00
2018-06-05T11:35:10.017Z,97324.00
2018-06-05T11:37:50.950Z,97320.00
2018-06-05T11:40:33.071Z,97318.00
2018-06-05T11:43:13.916Z,97313.00
2018-06-05T11:45:54.157Z,97310.00
2018-06-05T11:48:36.275Z,97310.00
2018-06-05T11:51:21.799Z,97308.00
2018-06-05T11:54:06.525Z,97302.00
2018-06-05T11:56:49.372Z,97301.00
2018-06-05T11:59:32.861Z,97293.00
2018-06-05T12:02:16.333Z,97297.00
2018-06-05T12:05:05.023Z,97291.00
2018-06-05T12:07:56.029Z,97286.00
2018-06-05T12:10:43.980Z,97289.00
2018-06-05T12:13:23.192Z,97277.00
2018-06-05T12:16:07.362Z,97277.00
2018-06-05T12:18:54.332Z,97274.00
2018-06-05T12:21:38.752Z,97268.00
2018-06-05T12:24:17.733Z,97269.00
2018-06-05T12:27:03.742Z,97270.00
2018-06-05T12:29:48.475Z,97261.00
2018-06-05T12:32:27.397Z,97253.00
2018-06-05T12:35:07.785Z,97253.00
2018-06-05T12:37:49.332Z,97250.00
2018-06-05T12:40:33.177Z,97257.00
2018-06-05T12:43:14.993Z,97254.00
2018-06-05T12:46:00.135Z,97251.00
2018-06-05T12:48:43.834Z,97259.00
2018-06-05T12:51:22.734Z,97252.00
2018-06-05T12:54:01.842Z,97245.00
2018-06-05T12:56:45.909Z,97247.00
2018-06-05T12:59:25.536Z,97240.00
2018-06-05T13:02:04.194Z,97242.00
2018-06-05T13:04:49.959Z,97243.00
2018-06-05T13:07:31.142Z,97245.00
2018-06-05T13:10:09.793Z,97239.00
2018-06-05T13:12:57.189Z,97237.00
2018-06-05T13:15:39.131Z,97228.00
2018-06-05T14:47:32.854Z,97182.00
2018-06-05T14:50:22.865Z,97189.00
2018-06-05T14:53:02.718Z,97184.00
2018-06-05T14:55:44.273Z,97183.00
2018-06-05T14:58:32.057Z,97180.00
2018-06-05T15:01:12.937Z,97180.00
2018-06-05T15:03:53.592Z,97173.00
2018-06-05T15:06:37.072Z,97179.00
2018-06-05T15:09:21.071Z,97176.00
2018-06-05T15:12:01.237Z,97178.00
2018-06-05T15:14:44.591Z,97170.00
2018-06-05T15:17:30.593Z,97168.00
2018-06-05T15:20:23.876Z,97173.00
2018-06-05T15:23:04.461Z,97176.00
2018-06-05T15:25:48.677Z,97175.00
2018-06-05T15:28:27.796Z,97173.00
2018-06-05T15:31:08.698Z,97171.00
2018-06-05T15:33:50.506Z,97166.00
2018-06-05T15:36:51.492Z,97164.00
2018-06-05T15:39:35.854Z,97168.00
2018-06-05T15:42:15.513Z,97164.00
2018-06-05T15:44:55.374Z,97171.00
2018-06-05T15:47:34.173Z,97168.00
2018-06-05T15:50:18.355Z,97170.00
2018-06-05T15:53:02.448Z,97171.00
2018-06-05T15:55:41.862Z,97176.00
2018-06-05T15:58:26.171Z,97177.00
2018-06-05T16:01:03.293Z,97180.00
2018-06-05T16:03:42.774Z,97175.00
2018-06-05T16:06:23.015Z,97171.00
2018-06-05T16:09:03.376Z,97169.00
2018-06-05T16:11:44.138Z,97169.00
2018-06-05T16:14:26.077Z,97170.00
2018-06-05T16:17:04.510Z,97174.00
2018-06-05T16:19:44.992Z,97175.00
2018-06-05T16:22:22.783Z,97178.00
2018-06-05T16:25:05.797Z,97175.00
2018-06-05T16:27:51.770Z,97180.00
2018-06-05T16:30:40.718Z,97178.00
2018-06-05T16:33:24.278Z,97180.00
2018-06-05T16:36:04.954Z,97181.00
2018-06-05T16:38:46.236Z,97182.00
2018-06-05T16:41:26.375Z,97189.00
2018-06-05T16:44:06.532Z,97186.00
2018-06-05T16:46:44.334Z,97192.00
2018-06-05T16:49:22.258Z,97190.00
2018-06-05T16:52:03.190Z,97192.00
2018-06-05T16:54:41.777Z,97202.00
2018-06-05T16:57:23.614Z,97198.00
2018-06-05T17:00:04.252Z,97201.00
2018-06-05T17:02:46.219Z,97199.00
2018-06-05T17:05:33.620Z,97192.00
2018-06-05T17:08:14.155Z,97203.00
2018-06-05T17:10:56.095Z,97206.00
2018-06-05T17:13:35.738Z,97204.00
2018-06-05T17:16:14.414Z,97208.00
2018-06-05T17:18:52.657Z,97207.00
2018-06-05T17:21:44.765Z,97207.00
2018-06-05T17:24:25.345Z,97206.00
2018-06-05T17:27:09.655Z,97214.00
2018-06-05T17:29:51.420Z,97211.00
2018-06-05T17:32:36.925Z,97219.00
2018-06-05T17:35:15.229Z,97220.00
2018-06-05T17:37:55.143Z,97223.00
2018-06-05T17:43:47.814Z,97225.00
2018-06-05T17:49:33.917Z,97231.00
2018-06-05T17:52:15.347Z,97235.00
2018-06-05T17:54:59.657Z,97232.00
2018-06-05T17:57:41.750Z,97234.00
2018-06-05T18:00:20.583Z,97235.00
2018-06-05T18:03:03.322Z,97242.00
2018-06-05T18:05:56.341Z,97248.00
2018-06-05T18:08:38.894Z,97244.00
2018-06-05T18:11:22.442Z,97247.00
2018-06-05T18:14:08.865Z,97253.00
2018-06-05T18:16:49.188Z,97249.00
2018-06-05T18:19:27.375Z,97251.00
2018-06-05T18:27:00.520Z,97260.00
2018-06-05T18:29:40.330Z,97265.00
2018-06-05T18:32:19.616Z,97261.00
2018-06-05T18:35:07.308Z,97261.00
2018-06-05T18:40:42.397Z,97259.00
2018-06-05T18:46:18.950Z,97272.00
2018-06-05T18:48:58.327Z,97270.00
2018-06-05T18:51:38.639Z,97274.00
2018-06-05T18:54:20.195Z,97277.00
2018-06-05T18:56:58.259Z,97280.00
2018-06-05T18:59:36.333Z,97294.00
2018-06-05T19:02:17.474Z,97295.00
2018-06-05T19:05:02.237Z,97303.00
2018-06-05T19:07:44.533Z,97304.00
2018-06-05T19:10:23.194Z,97307.00
2018-06-05T19:13:05.168Z,97310.00
2018-06-05T19:15:44.596Z,97316.00
2018-06-05T19:18:23.751Z,97323.00
2018-06-05T19:21:08.874Z,97330.00
2018-06-05T19:23:46.435Z,97341.00
2018-06-05T19:26:32.770Z,97341.00
2018-06-05T19:29:15.258Z,97344.00
2018-06-05T19:31:58.098Z,97351.00
2018-06-05T19:34:36.820Z,97357.00
2018-06-05T19:37:17.791Z,97365.00
2018-06-05T19:39:59.651Z,97370.00
2018-06-05T19:42:43.571Z,97373.00
2018-06-05T19:45:23.450Z,97373.00
2018-06-05T19:48:01.493Z,97383.00
2018-06-05T19:50:41.575Z,97388.00
2018-06-05T19:53:23.410Z,97390.00
2018-06-05T19:56:07.178Z,97394.00
2018-06-05T19:58:47.379Z,97396.00
2018-06-05T20:01:34.350Z,97401.00
2018-06-05T20:04:14.672Z,97409.00
2018-06-05T20:06:53.679Z,97406.00
2018-06-05T20:09:36.112Z,97404.00
2018-06-05T20:12:13.432Z,97414.00
2018-06-05T20:14:57.132Z,97414.00
2018-06-05T20:17:38.856Z,97413.00
2018-06-05T20:20:19.898Z,97418.00
2018-06-05T20:22:58.115Z,97418.00
2018-06-05T20:25:41.049Z,97420.00
2018-06-05T20:28:23.439Z,97425.00
2018-06-05T20:31:02.859Z,97427.00
2018-06-05T20:33:40.479Z,97429.00
2018-06-05T20:36:21.775Z,97434.00
2018-06-05T20:39:06.815Z,97434.00
2018-06-05T20:41:50.832Z,97447.00
2018-06-05T20:44:36.157Z,97444.00
2018-06-05T20:47:17.733Z,97450.00
2018-06-05T20:49:59.458Z,97450.00
2018-06-05T20:52:39.154Z,97451.00
2018-06-05T20:55:21.220Z,97453.00
2018-06-05T20:58:00.848Z,97454.00
2018-06-05T21:00:40.552Z,97461.00
2018-06-05T22:33:35.881Z,97507.00
2018-06-05T22:36:19.223Z,97511.00
2018-06-05T22:38:57.778Z,97508.00
2018-06-05T22:41:37.798Z,97505.00
2018-06-05T22:44:17.819Z,97507.00
2018-06-05T22:47:00.863Z,97508.00
2018-06-05T22:49:41.898Z,97510.00
2018-06-05T22:52:22.017Z,97505.00
2018-06-05T22:55:03.321Z,97504.00
2018-06-05T22:57:44.926Z,97504.00
2018-06-05T23:00:44.620Z,97508.00
2018-06-05T23:03:25.515Z,97507.00
2018-06-05T23:06:04.482Z,97504.00
2018-06-05T23:08:45.463Z,97506.00
2018-06-05T23:11:24.599Z,97511.00
2018-06-05T23:14:03.483Z,97509.00
2018-06-05T23:16:42.502Z,97503.00
